sensor_id;sensor_type;location;lat;lon;timestamp;pressure;altitude;pressure_sealevel;temperature;humidity
71194;BME280;58903;47.210;8.618;2023-02-28T00:02:25;94285.84;;;24.76;38.92
71194;BME280;58903;47.210;8.618;2023-02-28T00:05:17;94290.59;;;24.75;39.22
71194;BME280;58903;47.210;8.618;2023-02-28T00:07:44;94295.81;;;24.73;39.72
71194;BME280;58903;47.210;8.618;2023-02-28T00:13:41;94302.34;;;24.76;39.53
71194;BME280;58903;47.210;8.618;2023-02-28T00:16:17;94295.34;;;24.75;39.63
71194;BME280;58903;47.210;8.618;2023-02-28T00:19:02;94303.63;;;24.75;38.73
71194;BME280;58903;47.210;8.618;2023-02-28T00:25:17;94303.09;;;24.76;39.40
71194;BME280;58903;47.210;8.618;2023-02-28T00:27:43;94297.31;;;24.74;39.15
71194;BME280;58903;47.210;8.618;2023-02-28T00:30:29;94295.34;;;24.75;39.12
71194;BME280;58903;47.210;8.618;2023-02-28T00:32:59;94290.59;;;24.75;38.80
71194;BME280;58903;47.210;8.618;2023-02-28T00:38:53;94294.56;;;24.74;38.56
71194;BME280;58903;47.210;8.618;2023-02-28T00:41:48;94291.34;;;24.76;38.58
71194;BME280;58903;47.210;8.618;2023-02-28T00:44:14;94296.09;;;24.75;38.83
71194;BME280;58903;47.210;8.618;2023-02-28T00:46:42;94298.84;;;24.75;38.87
71194;BME280;58903;47.210;8.618;2023-02-28T00:49:16;94289.84;;;24.75;38.80
71194;BME280;58903;47.210;8.618;2023-02-28T00:51:56;94293.06;;;24.73;39.04
71194;BME280;58903;47.210;8.618;2023-02-28T00:54:41;94305.09;;;24.76;38.94
71194;BME280;58903;47.210;8.618;2023-02-28T00:57:08;94302.34;;;24.76;38.91
71194;BME280;58903;47.210;8.618;2023-02-28T00:59:35;94298.09;;;24.75;39.27
71194;BME280;58903;47.210;8.618;2023-02-28T01:02:04;94302.34;;;24.76;39.38
71194;BME280;58903;47.210;8.618;2023-02-28T01:04:30;94296.09;;;24.75;38.98
71194;BME280;58903;47.210;8.618;2023-02-28T01:07:01;94299.59;;;24.76;39.31
71194;BME280;58903;47.210;8.618;2023-02-28T01:09:56;94294.09;;;24.76;38.72
71194;BME280;58903;47.210;8.618;2023-02-28T01:12:30;94297.31;;;24.74;38.87
71194;BME280;58903;47.210;8.618;2023-02-28T01:14:57;94293.06;;;24.73;39.14
71194;BME280;58903;47.210;8.618;2023-02-28T01:17:27;94291.06;;;24.73;38.52
71194;BME280;58903;47.210;8.618;2023-02-28T01:19:55;94301.59;;;24.75;39.23
71194;BME280;58903;47.210;8.618;2023-02-28T01:22:21;94292.59;;;24.75;39.39
71194;BME280;58903;47.210;8.618;2023-02-28T01:24:47;94293.81;;;24.73;39.19
71194;BME280;58903;47.210;8.618;2023-02-28T01:27:17;94287.09;;;24.75;39.44
71194;BME280;58903;47.210;8.618;2023-02-28T01:29:43;94287.09;;;24.75;38.46
71194;BME280;58903;47.210;8.618;2023-02-28T01:32:12;94293.81;;;24.73;38.66
71194;BME280;58903;47.210;8.618;2023-02-28T01:34:37;94295.34;;;24.75;38.59
71194;BME280;58903;47.210;8.618;2023-02-28T01:37:06;94287.31;;;24.71;38.82
71194;BME280;58903;47.210;8.618;2023-02-28T01:39:31;94296.84;;;24.76;38.95
71194;BME280;58903;47.210;8.618;2023-02-28T01:41:57;94294.09;;;24.76;38.95
71194;BME280;58903;47.210;8.618;2023-02-28T01:47:33;94301.59;;;24.75;39.33
71194;BME280;58903;47.210;8.618;2023-02-28T01:50:19;94288.31;;;24.73;38.79
71194;BME280;58903;47.210;8.618;2023-02-28T01:52:48;94282.81;;;24.73;38.91
71194;BME280;58903;47.210;8.618;2023-02-28T01:55:24;94291.34;;;24.76;39.19
71194;BME280;58903;47.210;8.618;2023-02-28T01:58:25;94290.59;;;24.75;38.76
71194;BME280;58903;47.210;8.618;2023-02-28T02:01:04;94286.59;;;24.76;39.10
71194;BME280;58903;47.210;8.618;2023-02-28T02:03:40;94285.34;;;24.71;38.64
71194;BME280;58903;47.210;8.618;2023-02-28T02:06:17;94288.31;;;24.73;38.47
71194;BME280;58903;47.210;8.618;2023-02-28T02:08:44;94285.34;;;24.71;39.26
71194;BME280;58903;47.210;8.618;2023-02-28T02:11:13;94282.06;;;24.73;39.53
71194;BME280;58903;47.210;8.618;2023-02-28T02:22:21;94271.81;;;24.73;39.21
71194;BME280;58903;47.210;8.618;2023-02-28T02:36:07;94257.31;;;24.73;39.26
71194;BME280;58903;47.210;8.618;2023-02-28T02:41:54;94256.59;;;24.73;38.71
71194;BME280;58903;47.210;8.618;2023-02-28T02:44:28;94261.56;;;24.74;38.75
71194;BME280;58903;47.210;8.618;2023-02-28T02:47:11;94262.34;;;24.75;38.84
71194;BME280;58903;47.210;8.618;2023-02-28T02:49:44;94252.56;;;24.73;39.48
71194;BME280;58903;47.210;8.618;2023-02-28T02:52:17;94262.81;;;24.73;38.45
71194;BME280;58903;47.210;8.618;2023-02-28T02:54:47;94260.06;;;24.73;39.21
71194;BME280;58903;47.210;8.618;2023-02-28T02:57:38;94259.34;;;24.73;39.30
71194;BME280;58903;47.210;8.618;2023-02-28T03:00:17;94260.06;;;24.73;38.76
71194;BME280;58903;47.210;8.618;2023-02-28T03:03:07;94266.31;;;24.73;38.48
71194;BME280;58903;47.210;8.618;2023-02-28T03:05:51;94261.56;;;24.74;38.88
71194;BME280;58903;47.210;8.618;2023-02-28T03:08:45;94258.81;;;24.74;38.55
71194;BME280;58903;47.210;8.618;2023-02-28T03:11:18;94253.84;;;24.73;39.02
71194;BME280;58903;47.210;8.618;2023-02-28T03:25:59;94264.84;;;24.73;38.58
71194;BME280;58903;47.210;8.618;2023-02-28T03:31:47;94262.81;;;24.73;38.31
71194;BME280;58903;47.210;8.618;2023-02-28T03:38:12;94266.84;;;24.72;39.02
71194;BME280;58903;47.210;8.618;2023-02-28T03:41:06;94256.84;;;24.69;38.70
71194;BME280;58903;47.210;8.618;2023-02-28T03:44:05;94259.81;;;24.71;39.03
71194;BME280;58903;47.210;8.618;2023-02-28T03:46:49;94250.09;;;24.70;38.44
71194;BME280;58903;47.210;8.618;2023-02-28T03:49:28;94252.31;;;24.71;39.00
71194;BME280;58903;47.210;8.618;2023-02-28T03:52:04;94257.81;;;24.71;38.72
71194;BME280;58903;47.210;8.618;2023-02-28T03:54:37;94259.09;;;24.70;39.18
71194;BME280;58903;47.210;8.618;2023-02-28T04:02:34;94271.59;;;24.71;38.37
71194;BME280;58903;47.210;8.618;2023-02-28T04:05:00;94268.84;;;24.71;38.50
71194;BME280;58903;47.210;8.618;2023-02-28T04:07:32;94271.59;;;24.71;38.38
71194;BME280;58903;47.210;8.618;2023-02-28T04:10:18;94270.34;;;24.73;38.84
71194;BME280;58903;47.210;8.618;2023-02-28T04:12:57;94270.81;;;24.71;38.75
71194;BME280;58903;47.210;8.618;2023-02-28T04:15:36;94274.09;;;24.69;38.45
71194;BME280;58903;47.210;8.618;2023-02-28T04:18:14;94273.56;;;24.71;39.08
71194;BME280;58903;47.210;8.618;2023-02-28T04:20:40;94279.84;;;24.71;38.56
71194;BME280;58903;47.210;8.618;2023-02-28T04:23:08;94270.09;;;24.70;38.81
71194;BME280;58903;47.210;8.618;2023-02-28T04:29:10;94283.84;;;24.70;38.71
71194;BME280;58903;47.210;8.618;2023-02-28T04:31:36;94282.09;;;24.67;38.80
71194;BME280;58903;47.210;8.618;2023-02-28T04:34:28;94292.09;;;24.70;38.95
71194;BME280;58903;47.210;8.618;2023-02-28T04:37:04;94290.06;;;24.71;38.62
71194;BME280;58903;47.210;8.618;2023-02-28T04:39:35;94288.09;;;24.71;39.09
71194;BME280;58903;47.210;8.618;2023-02-28T04:42:01;94285.34;;;24.71;38.64
71194;BME280;58903;47.210;8.618;2023-02-28T04:48:16;94283.09;;;24.70;39.25
71194;BME280;58903;47.210;8.618;2023-02-28T04:51:02;94283.09;;;24.70;38.39
71194;BME280;58903;47.210;8.618;2023-02-28T04:53:46;94291.34;;;24.70;39.38
71194;BME280;58903;47.210;8.618;2023-02-28T04:56:50;94290.59;;;24.69;38.49
71194;BME280;58903;47.210;8.618;2023-02-28T04:59:26;94294.84;;;24.70;39.09
71194;BME280;58903;47.210;8.618;2023-02-28T05:02:05;94306.59;;;24.71;39.18
71194;BME280;58903;47.210;8.618;2023-02-28T05:04:45;94311.34;;;24.70;38.91
71194;BME280;58903;47.210;8.618;2023-02-28T05:07:13;94306.34;;;24.69;38.51
71194;BME280;58903;47.210;8.618;2023-02-28T05:09:51;94302.34;;;24.70;38.60
71194;BME280;58903;47.210;8.618;2023-02-28T05:12:19;94308.34;;;24.68;38.80
71194;BME280;58903;47.210;8.618;2023-02-28T05:14:46;94305.09;;;24.70;39.27
71194;BME280;58903;47.210;8.618;2023-02-28T05:20:33;94316.84;;;24.70;39.29
71194;BME280;58903;47.210;8.618;2023-02-28T05:23:34;94312.84;;;24.71;38.60
71194;BME280;58903;47.210;8.618;2023-02-28T05:26:00;94306.84;;;24.67;38.60
71194;BME280;58903;47.210;8.618;2023-02-28T05:28:26;94314.84;;;24.71;39.24
71194;BME280;58903;47.210;8.618;2023-02-28T05:30:53;94322.34;;;24.70;38.55
71194;BME280;58903;47.210;8.618;2023-02-28T05:33:19;94320.84;;;24.69;38.53
71194;BME280;58903;47.210;8.618;2023-02-28T05:35:58;94319.84;;;24.73;38.99
71194;BME280;58903;47.210;8.618;2023-02-28T05:38:34;94319.59;;;24.70;39.08
71194;BME280;58903;47.210;8.618;2023-02-28T05:41:32;94314.34;;;24.73;38.15
71194;BME280;58903;47.210;8.618;2023-02-28T05:44:18;94314.34;;;24.73;38.40
71194;BME280;58903;47.210;8.618;2023-02-28T05:46:58;94318.34;;;24.71;38.46
71194;BME280;58903;47.210;8.618;2023-02-28T05:49:26;94319.09;;;24.72;38.52
71194;BME280;58903;47.210;8.618;2023-02-28T05:52:02;94315.81;;;24.73;39.01
71194;BME280;58903;47.210;8.618;2023-02-28T05:54:29;94325.63;;;24.75;38.27
71194;BME280;58903;47.210;8.618;2023-02-28T05:57:15;94325.63;;;24.75;38.60
71194;BME280;58903;47.210;8.618;2023-02-28T05:59:41;94315.81;;;24.73;38.64
71194;BME280;58903;47.210;8.618;2023-02-28T06:02:19;94322.88;;;24.75;38.80
71194;BME280;58903;47.210;8.618;2023-02-28T06:04:46;94322.09;;;24.74;38.57
71194;BME280;58903;47.210;8.618;2023-02-28T06:07:13;94318.59;;;24.79;38.98
71194;BME280;58903;47.210;8.618;2023-02-28T06:09:53;94326.28;;;24.86;38.79
71194;BME280;58903;47.210;8.618;2023-02-28T06:12:31;94332.56;;;24.87;38.51
71194;BME280;58903;47.210;8.618;2023-02-28T06:15:30;94337.56;;;24.83;37.67
71194;BME280;58903;47.210;8.618;2023-02-28T06:18:05;94339.56;;;24.82;37.88
71194;BME280;58903;47.210;8.618;2023-02-28T06:20:31;94341.31;;;24.85;38.44
71194;BME280;58903;47.210;8.618;2023-02-28T06:22:57;94349.53;;;24.96;37.96
71194;BME280;58903;47.210;8.618;2023-02-28T06:25:28;94341.28;;;24.91;36.69
71194;BME280;58903;47.210;8.618;2023-02-28T06:27:57;94345.56;;;24.86;36.14
71194;BME280;58903;47.210;8.618;2023-02-28T06:30:23;94345.53;;;24.92;36.95
71194;BME280;58903;47.210;8.618;2023-02-28T06:33:21;94355.03;;;24.96;36.10
71194;BME280;58903;47.210;8.618;2023-02-28T06:35:54;94353.03;;;24.97;36.70
71194;BME280;58903;47.210;8.618;2023-02-28T06:38:22;94352.00;;;25.00;36.19
71194;BME280;58903;47.210;8.618;2023-02-28T06:41:01;94361.28;;;24.97;36.43
71194;BME280;58903;47.210;8.618;2023-02-28T06:43:34;94365.03;;;24.94;36.51
71194;BME280;58903;47.210;8.618;2023-02-28T06:46:15;94368.31;;;24.87;35.96
71194;BME280;58903;47.210;8.618;2023-02-28T06:48:59;94371.34;;;24.83;36.01
71194;BME280;58903;47.210;8.618;2023-02-28T06:51:55;94375.84;;;24.81;36.20
71194;BME280;58903;47.210;8.618;2023-02-28T06:57:37;94380.09;;;24.76;36.58
71194;BME280;58903;47.210;8.618;2023-02-28T07:00:14;94379.09;;;24.73;36.66
71194;BME280;58903;47.210;8.618;2023-02-28T07:02:42;94381.84;;;24.73;36.30
71194;BME280;58903;47.210;8.618;2023-02-28T07:05:34;94386.34;;;24.71;36.85
71194;BME280;58903;47.210;8.618;2023-02-28T07:08:33;94384.09;;;24.69;36.59
71194;BME280;58903;47.210;8.618;2023-02-28T07:11:03;94379.13;;;24.68;36.22
71194;BME280;58903;47.210;8.618;2023-02-28T07:13:29;94382.59;;;24.68;37.31
71194;BME280;58903;47.210;8.618;2023-02-28T07:16:10;94378.38;;;24.67;37.18
71194;BME280;58903;47.210;8.618;2023-02-28T07:18:38;94388.84;;;24.69;36.51
71194;BME280;58903;47.210;8.618;2023-02-28T07:21:15;94393.09;;;24.70;36.46
71194;BME280;58903;47.210;8.618;2023-02-28T07:23:41;94388.84;;;24.69;36.80
71194;BME280;58903;47.210;8.618;2023-02-28T07:26:19;94384.09;;;24.69;37.00
71194;BME280;58903;47.210;8.618;2023-02-28T07:29:03;94383.34;;;24.69;37.09
71194;BME280;58903;47.210;8.618;2023-02-28T07:31:31;94381.63;;;24.66;37.49
71194;BME280;58903;47.210;8.618;2023-02-28T07:37:36;94384.84;;;24.76;37.20
71194;BME280;58903;47.210;8.618;2023-02-28T07:43:43;94395.09;;;24.75;37.81
71194;BME280;58903;47.210;8.618;2023-02-28T07:46:13;94389.84;;;24.71;38.18
71194;BME280;58903;47.210;8.618;2023-02-28T07:49:00;94393.88;;;24.70;38.35
71194;BME280;58903;47.210;8.618;2023-02-28T07:51:31;94392.34;;;24.69;37.79
71194;BME280;58903;47.210;8.618;2023-02-28T07:53:57;94396.63;;;24.70;37.46
71194;BME280;58903;47.210;8.618;2023-02-28T07:56:25;94396.34;;;24.68;38.02
71194;BME280;58903;47.210;8.618;2023-02-28T07:59:00;94393.09;;;24.70;38.28
71194;BME280;58903;47.210;8.618;2023-02-28T08:01:27;94387.84;;;24.66;38.59
71194;BME280;58903;47.210;8.618;2023-02-28T08:04:02;94390.13;;;24.68;38.53
71194;BME280;58903;47.210;8.618;2023-02-28T08:06:28;94395.63;;;24.68;38.61
71194;BME280;58903;47.210;8.618;2023-02-28T08:08:54;94400.38;;;24.67;38.03
71194;BME280;58903;47.210;8.618;2023-02-28T08:11:22;94393.34;;;24.66;38.81
71194;BME280;58903;47.210;8.618;2023-02-28T08:13:50;94396.34;;;24.68;38.46
71194;BME280;58903;47.210;8.618;2023-02-28T08:16:18;94391.34;;;24.67;38.61
71194;BME280;58903;47.210;8.618;2023-02-28T08:18:51;94405.09;;;24.67;38.62
71194;BME280;58903;47.210;8.618;2023-02-28T08:21:30;94400.38;;;24.67;38.42
71194;BME280;58903;47.210;8.618;2023-02-28T08:23:58;94398.84;;;24.66;38.75
71194;BME280;58903;47.210;8.618;2023-02-28T08:26:24;94405.63;;;24.65;38.90
71194;BME280;58903;47.210;8.618;2023-02-28T08:29:16;94398.13;;;24.66;38.36
71194;BME280;58903;47.210;8.618;2023-02-28T08:31:42;94405.63;;;24.65;39.19
71194;BME280;58903;47.210;8.618;2023-02-28T08:34:11;94403.63;;;24.66;38.95
71194;BME280;58903;47.210;8.618;2023-02-28T08:36:38;94409.84;;;24.66;39.02
71194;BME280;58903;47.210;8.618;2023-02-28T08:39:09;94395.84;;;24.64;38.95
71194;BME280;58903;47.210;8.618;2023-02-28T08:41:37;94401.59;;;24.66;39.17
71194;BME280;58903;47.210;8.618;2023-02-28T08:44:03;94409.38;;;24.68;38.21
71194;BME280;58903;47.210;8.618;2023-02-28T08:46:36;94408.63;;;24.67;38.83
71194;BME280;58903;47.210;8.618;2023-02-28T08:49:02;94408.63;;;24.67;38.39
71194;BME280;58903;47.210;8.618;2023-02-28T08:51:41;94411.38;;;24.67;38.72
71194;BME280;58903;47.210;8.618;2023-02-28T08:54:20;94411.88;;;24.66;38.98
71194;BME280;58903;47.210;8.618;2023-02-28T08:56:56;94416.88;;;24.67;38.82
71194;BME280;58903;47.210;8.618;2023-02-28T08:59:27;94402.88;;;24.65;38.47
71194;BME280;58903;47.210;8.618;2023-02-28T09:01:55;94401.38;;;24.64;38.64
71194;BME280;58903;47.210;8.618;2023-02-28T09:04:26;94412.59;;;24.66;38.80
71194;BME280;58903;47.210;8.618;2023-02-28T09:06:52;94410.59;;;24.67;38.99
71194;BME280;58903;47.210;8.618;2023-02-28T09:09:20;94415.13;;;24.70;38.61
71194;BME280;58903;47.210;8.618;2023-02-28T09:11:55;94408.34;;;24.71;39.17
71194;BME280;58903;47.210;8.618;2023-02-28T09:14:21;94407.34;;;24.68;38.87
71194;BME280;58903;47.210;8.618;2023-02-28T09:16:47;94407.63;;;24.70;39.11
71194;BME280;58903;47.210;8.618;2023-02-28T09:19:40;94405.59;;;24.71;39.15
71194;BME280;58903;47.210;8.618;2023-02-28T09:22:07;94407.63;;;24.70;39.10
71194;BME280;58903;47.210;8.618;2023-02-28T09:24:35;94413.84;;;24.71;38.89
71194;BME280;58903;47.210;8.618;2023-02-28T09:27:02;94419.34;;;24.71;38.71
71194;BME280;58903;47.210;8.618;2023-02-28T09:29:28;94421.38;;;24.70;38.68
71194;BME280;58903;47.210;8.618;2023-02-28T09:31:56;94429.63;;;24.70;39.02
71194;BME280;58903;47.210;8.618;2023-02-28T09:34:26;94430.34;;;24.71;38.90
71194;BME280;58903;47.210;8.618;2023-02-28T09:36:54;94432.38;;;24.70;39.16
71194;BME280;58903;47.210;8.618;2023-02-28T09:39:51;94427.34;;;24.69;38.98
71194;BME280;58903;47.210;8.618;2023-02-28T09:42:32;94430.84;;;24.69;38.59
71194;BME280;58903;47.210;8.618;2023-02-28T09:45:05;94432.09;;;24.68;38.70
71194;BME280;58903;47.210;8.618;2023-02-28T09:47:46;94443.84;;;24.69;38.46
71194;BME280;58903;47.210;8.618;2023-02-28T09:52:54;94448.88;;;24.70;39.66
71194;BME280;58903;47.210;8.618;2023-02-28T09:55:45;94450.34;;;24.71;38.28
71194;BME280;58903;47.210;8.618;2023-02-28T09:58:46;94454.63;;;24.73;38.85
71194;BME280;58903;47.210;8.618;2023-02-28T10:01:37;94457.63;;;24.75;39.39
71194;BME280;58903;47.210;8.618;2023-02-28T10:05:00;94456.09;;;24.73;39.21
71194;BME280;58903;47.210;8.618;2023-02-28T10:09:53;94451.88;;;24.73;38.93
71194;BME280;58903;47.210;8.618;2023-02-28T10:12:20;94462.88;;;24.73;38.75
71194;BME280;58903;47.210;8.618;2023-02-28T10:14:52;94463.59;;;24.73;39.37
71194;BME280;58903;47.210;8.618;2023-02-28T10:17:38;94462.88;;;24.73;39.36
71194;BME280;58903;47.210;8.618;2023-02-28T10:20:14;94464.34;;;24.73;39.38
71194;BME280;58903;47.210;8.618;2023-02-28T10:23:02;94476.09;;;24.74;38.58
71194;BME280;58903;47.210;8.618;2023-02-28T10:25:36;94463.59;;;24.73;38.81
71194;BME280;58903;47.210;8.618;2023-02-28T10:28:11;94449.59;;;24.71;38.91
71194;BME280;58903;47.210;8.618;2023-02-28T10:30:51;94460.41;;;24.75;39.32
71194;BME280;58903;47.210;8.618;2023-02-28T10:33:34;94460.41;;;24.75;39.46
71194;BME280;58903;47.210;8.618;2023-02-28T10:36:23;94463.88;;;24.75;39.12
71194;BME280;58903;47.210;8.618;2023-02-28T10:42:19;94474.16;;;24.75;39.32
71194;BME280;58903;47.210;8.618;2023-02-28T10:45:15;94472.59;;;24.73;38.73
71194;BME280;58903;47.210;8.618;2023-02-28T10:47:56;94460.59;;;24.71;39.34
71194;BME280;58903;47.210;8.618;2023-02-28T11:01:38;94477.63;;;24.75;38.76
71194;BME280;58903;47.210;8.618;2023-02-28T11:07:04;94476.91;;;24.75;39.11
71194;BME280;58903;47.210;8.618;2023-02-28T11:09:34;94483.13;;;24.75;39.05
71194;BME280;58903;47.210;8.618;2023-02-28T11:12:07;94497.16;;;24.77;38.47
71194;BME280;58903;47.210;8.618;2023-02-28T11:14:50;94498.13;;;24.80;38.85
71194;BME280;58903;47.210;8.618;2023-02-28T11:17:27;94492.63;;;24.80;38.16
71194;BME280;58903;47.210;8.618;2023-02-28T11:20:22;94485.63;;;24.79;38.25
71194;BME280;58903;47.210;8.618;2023-02-28T11:22:51;94483.88;;;24.76;38.38
71194;BME280;58903;47.210;8.618;2023-02-28T11:27:55;94480.66;;;24.77;38.10
71194;BME280;58903;47.210;8.618;2023-02-28T11:30:34;94486.16;;;24.77;38.30
71194;BME280;58903;47.210;8.618;2023-02-28T11:36:16;94490.13;;;24.76;38.11
71194;BME280;58903;47.210;8.618;2023-02-28T11:39:00;94481.13;;;24.76;38.65
71194;BME280;58903;47.210;8.618;2023-02-28T11:45:03;94476.63;;;24.78;38.41
71194;BME280;58903;47.210;8.618;2023-02-28T12:05:45;94463.38;;;24.77;38.50
71194;BME280;58903;47.210;8.618;2023-02-28T12:08:51;94477.13;;;24.77;38.97
71194;BME280;58903;47.210;8.618;2023-02-28T12:11:37;94475.16;;;24.77;38.81
71194;BME280;58903;47.210;8.618;2023-02-28T12:28:09;94482.88;;;24.79;39.01
71194;BME280;58903;47.210;8.618;2023-02-28T12:31:01;94481.38;;;24.78;39.26
71194;BME280;58903;47.210;8.618;2023-02-28T12:33:51;94469.88;;;24.79;38.72
71194;BME280;58903;47.210;8.618;2023-02-28T12:36:53;94470.84;;;24.82;38.61
71194;BME280;58903;47.210;8.618;2023-02-28T12:39:45;94467.88;;;24.80;38.57
71194;BME280;58903;47.210;8.618;2023-02-28T12:42:36;94455.63;;;24.81;38.19
71194;BME280;58903;47.210;8.618;2023-02-28T12:45:22;94457.09;;;24.82;38.29
71194;BME280;58903;47.210;8.618;2023-02-28T12:47:57;94449.59;;;24.82;38.77
71194;BME280;58903;47.210;8.618;2023-02-28T12:50:35;94448.84;;;24.82;39.17
71194;BME280;58903;47.210;8.618;2023-02-28T12:58:39;94469.38;;;24.81;38.64
71194;BME280;58903;47.210;8.618;2023-02-28T13:01:43;94467.34;;;24.87;38.89
71194;BME280;58903;47.210;8.618;2023-02-28T13:10:11;94476.09;;;24.91;37.42
71194;BME280;58903;47.210;8.618;2023-02-28T13:12:56;94462.59;;;24.87;37.90
71194;BME280;58903;47.210;8.618;2023-02-28T13:15:26;94461.59;;;24.85;37.87
71194;BME280;58903;47.210;8.618;2023-02-28T13:17:58;94461.09;;;24.86;38.45
71194;BME280;58903;47.210;8.618;2023-02-28T13:20:48;94469.34;;;24.86;38.32
71194;BME280;58903;47.210;8.618;2023-02-28T13:26:20;94466.13;;;24.82;38.37
71194;BME280;58903;47.210;8.618;2023-02-28T13:28:57;94460.13;;;24.84;37.92
71194;BME280;58903;47.210;8.618;2023-02-28T13:31:29;94462.13;;;24.83;37.96
71194;BME280;58903;47.210;8.618;2023-02-28T13:34:26;94460.59;;;24.82;38.68
71194;BME280;58903;47.210;8.618;2023-02-28T13:39:58;94462.59;;;24.82;38.33
71194;BME280;58903;47.210;8.618;2023-02-28T13:47:32;94467.63;;;24.83;38.54
71194;BME280;58903;47.210;8.618;2023-02-28T13:50:22;94470.84;;;24.82;38.48
71194;BME280;58903;47.210;8.618;2023-02-28T14:04:20;94476.34;;;24.82;38.48
71194;BME280;58903;47.210;8.618;2023-02-28T14:06:35;94474.13;;;24.80;38.78
71194;BME280;58903;47.210;8.618;2023-02-28T14:09:28;94474.88;;;24.81;38.61
71194;BME280;58903;47.210;8.618;2023-02-28T14:11:56;94488.63;;;24.81;38.42
71194;BME280;58903;47.210;8.618;2023-02-28T14:17:34;94477.88;;;24.83;38.07
71194;BME280;58903;47.210;8.618;2023-02-28T14:20:01;94482.63;;;24.82;38.59
71194;BME280;58903;47.210;8.618;2023-02-28T14:29:10;94496.88;;;24.81;39.03
71194;BME280;58903;47.210;8.618;2023-02-28T14:32:30;94497.63;;;24.81;38.36
71194;BME280;58903;47.210;8.618;2023-02-28T14:37:54;94505.13;;;24.81;38.52
71194;BME280;58903;47.210;8.618;2023-02-28T14:40:38;94497.63;;;24.81;38.32
71194;BME280;58903;47.210;8.618;2023-02-28T14:43:26;94507.13;;;24.80;38.93
71194;BME280;58903;47.210;8.618;2023-02-28T14:46:00;94509.13;;;24.80;38.43
71194;BME280;58903;47.210;8.618;2023-02-28T14:48:32;94506.38;;;24.80;38.73
71194;BME280;58903;47.210;8.618;2023-02-28T14:51:01;94503.63;;;24.80;38.12
71194;BME280;58903;47.210;8.618;2023-02-28T14:53:34;94506.38;;;24.80;38.77
71194;BME280;58903;47.210;8.618;2023-02-28T14:56:01;94506.38;;;24.80;38.91
71194;BME280;58903;47.210;8.618;2023-02-28T14:58:33;94509.13;;;24.80;38.51
71194;BME280;58903;47.210;8.618;2023-02-28T15:01:02;94501.38;;;24.78;38.24
71194;BME280;58903;47.210;8.618;2023-02-28T15:06:04;94503.88;;;24.82;38.91
71194;BME280;58903;47.210;8.618;2023-02-28T15:08:35;94511.41;;;24.81;38.91
71194;BME280;58903;47.210;8.618;2023-02-28T15:11:16;94522.41;;;24.81;38.46
71194;BME280;58903;47.210;8.618;2023-02-28T15:13:53;94505.13;;;24.81;38.93
71194;BME280;58903;47.210;8.618;2023-02-28T15:16:48;94511.41;;;24.81;38.21
71194;BME280;58903;47.210;8.618;2023-02-28T15:19:25;94512.13;;;24.82;38.59
71194;BME280;58903;47.210;8.618;2023-02-28T15:22:08;94519.13;;;24.83;38.46
71194;BME280;58903;47.210;8.618;2023-02-28T15:24:44;94513.38;;;24.81;38.06
71194;BME280;58903;47.210;8.618;2023-02-28T15:29:55;94518.13;;;24.80;38.47
71194;BME280;58903;47.210;8.618;2023-02-28T15:34:52;94514.63;;;24.80;38.39
71194;BME280;58903;47.210;8.618;2023-02-28T15:45:40;94528.91;;;24.84;38.37
71194;BME280;58903;47.210;8.618;2023-02-28T15:50:43;94532.13;;;24.82;39.00
71194;BME280;58903;47.210;8.618;2023-02-28T15:53:17;94534.88;;;24.82;38.58
71194;BME280;58903;47.210;8.618;2023-02-28T15:55:44;94538.41;;;24.83;38.64
71194;BME280;58903;47.210;8.618;2023-02-28T15:58:12;94538.16;;;24.81;38.28
71194;BME280;58903;47.210;8.618;2023-02-28T16:00:39;94539.91;;;24.84;37.73
71194;BME280;58903;47.210;8.618;2023-02-28T16:03:34;94535.66;;;24.83;37.81
71194;BME280;58903;47.210;8.618;2023-02-28T16:09:26;94532.91;;;24.77;38.20
71194;BME280;58903;47.210;8.618;2023-02-28T16:12:02;94542.13;;;24.80;37.99
71194;BME280;58903;47.210;8.618;2023-02-28T16:15:35;94543.41;;;24.79;38.57
71194;BME280;58903;47.210;8.618;2023-02-28T16:18:11;94540.16;;;24.80;38.07
71194;BME280;58903;47.210;8.618;2023-02-28T16:20:54;94537.16;;;24.78;38.09
71194;BME280;58903;47.210;8.618;2023-02-28T16:23:32;94544.16;;;24.79;38.25
71194;BME280;58903;47.210;8.618;2023-02-28T16:25:58;94543.41;;;24.79;38.49
71194;BME280;58903;47.210;8.618;2023-02-28T16:28:35;94546.41;;;24.81;38.54
71194;BME280;58903;47.210;8.618;2023-02-28T16:31:05;94543.41;;;24.79;38.38
71194;BME280;58903;47.210;8.618;2023-02-28T16:33:44;94543.16;;;24.77;38.58
71194;BME280;58903;47.210;8.618;2023-02-28T16:36:20;94544.88;;;24.80;37.96
71194;BME280;58903;47.210;8.618;2023-02-28T16:39:01;94550.38;;;24.80;37.94
71194;BME280;58903;47.210;8.618;2023-02-28T16:41:43;94547.38;;;24.78;38.07
71194;BME280;58903;47.210;8.618;2023-02-28T16:44:35;94549.13;;;24.75;38.14
71194;BME280;58903;47.210;8.618;2023-02-28T16:47:03;94551.66;;;24.79;38.22
71194;BME280;58903;47.210;8.618;2023-02-28T16:49:38;94553.91;;;24.80;38.06
71194;BME280;58903;47.210;8.618;2023-02-28T16:52:11;94559.41;;;24.80;38.63
71194;BME280;58903;47.210;8.618;2023-02-28T16:54:40;94567.66;;;24.80;38.06
71194;BME280;58903;47.210;8.618;2023-02-28T16:57:21;94555.88;;;24.80;38.63
71194;BME280;58903;47.210;8.618;2023-02-28T16:59:49;94559.41;;;24.80;38.08
71194;BME280;58903;47.210;8.618;2023-02-28T17:02:18;94565.41;;;24.79;38.61
71194;BME280;58903;47.210;8.618;2023-02-28T17:04:54;94561.41;;;24.80;38.12
71194;BME280;58903;47.210;8.618;2023-02-28T17:07:20;94561.41;;;24.80;38.36
71194;BME280;58903;47.210;8.618;2023-02-28T17:09:48;94565.41;;;24.79;38.29
71194;BME280;58903;47.210;8.618;2023-02-28T17:12:14;94569.66;;;24.80;38.05
71194;BME280;58903;47.210;8.618;2023-02-28T17:14:40;94571.16;;;24.81;38.64
71194;BME280;58903;47.210;8.618;2023-02-28T17:17:18;94570.41;;;24.80;38.86
71194;BME280;58903;47.210;8.618;2023-02-28T17:19:45;94580.66;;;24.80;38.52
71194;BME280;58903;47.210;8.618;2023-02-28T17:22:21;94576.66;;;24.81;38.68